Flight Track Log - Related Links

Times and Time Zones

All times are in EDT time to prevent confusion due to time zone crossing. See the QLK109D flight status page for this flight to view local times or setup timezone preferences in your user account.

Time Position Orientation Groundspeed Altitude Reporting Facility
EDT Latitude Longitude Course Direction KTS MPH feet Rate Location/Type
Wed 11:31:07 PM -30.3122 153.1172 208° Southwest 22,000  Level Aus ATC (Calculated)
Wed 11:31:33 PM -30.3595 153.0791 202° Southwest 22,000 -3,277 Level Aus ATC (Calculated)
Wed 11:32:00 PM -30.3595 153.0791 202° Southwest 22,000 -3,659 Level Aus ATC (Calculated)
Wed 11:32:54 PM -30.4542 153.0028 46° Northeast 22,000 -4,163 Level Aus ATC (Calculated)
Wed 11:33:00 PM -30.3926 153.0524 215° Southwest  Level FlightAware Approximate
Wed 11:34:00 PM -30.5502 152.9251 215° Southwest  Level FlightAware Approximate
Wed 11:34:10 PM -30.5015 152.9646 41° Northeast 22,000  Level Aus ATC (Calculated)
Wed 11:34:33 PM -30.5488 152.9263 39° Northeast 22,000 -12,364 Level Aus ATC (Calculated)
Wed 11:35:16 PM -30.4115 153.0548 215° Southwest 236 272 8,400 -9,385 Descending Aus ATC (RADAR)
Wed 11:35:51 PM -30.4385 153.0211 227° Southwest 241 277 9,800 2,400 Climbing Aus ATC (RADAR)
Wed 11:36:26 PM -30.4718 152.9926 216° Southwest 249 287 11,200 2,188 Climbing Aus ATC (RADAR)
Wed 11:37:16 PM -30.5217 152.9525 215° Southwest 263 303 12,900 1,964 Climbing Aus ATC (RADAR)
Wed 11:38:16 PM -30.5837 152.9043 214° Southwest 266 306 14,800 1,771 Climbing Aus ATC (RADAR)
Wed 11:39:01 PM -30.6334 152.8690 211° Southwest 275 316 16,000 1,429 Climbing Aus ATC (RADAR)
Wed 11:40:01 PM -30.6957 152.8179 215° Southwest 275 316 17,300 1,371 Climbing Aus ATC (RADAR)
Wed 11:40:46 PM -30.7428 152.7785 216° Southwest 279 321 18,400 1,835 Climbing Aus ATC (RADAR)
Wed 11:41:26 PM -30.7843 152.7467 213° Southwest 268 308 19,900 2,133 Climbing Aus ATC (RADAR)
Wed 11:42:16 PM -30.8298 152.7085 216° Southwest 244 281 21,600 1,745 Climbing Aus ATC (RADAR)
Wed 11:43:16 PM -30.8818 152.6648 216° Southwest 228 262 23,100 1,429 Climbing Aus ATC (RADAR)
Wed 11:44:01 PM -30.9182 152.6330 217° Southwest 220 253 24,100 577 Climbing Aus ATC (RADAR)
Wed 11:45:00 PM -30.9744 152.5863 215° Southwest 256 295 24,100  Level Aus ATC (RADAR)
Wed 11:45:50 PM -31.0278 152.5426 215° Southwest 284 327 24,100  Level Aus ATC (RADAR)
Wed 11:46:25 PM -31.0679 152.5099 215° Southwest 301 346 24,100  Level Aus ATC (RADAR)
Wed 11:47:20 PM -31.1336 152.4558 215° Southwest 319 367 24,100  Level Aus ATC (RADAR)
Wed 11:48:10 PM -31.1939 152.4047 216° Southwest 324 373 24,100  Level Aus ATC (RADAR)
Wed 11:49:20 PM -31.2794 152.3335 215° Southwest 324 373 24,100  Level Aus ATC (RADAR)
Wed 11:50:20 PM -31.3533 152.2727 215° Southwest 326 375 24,100  Level Aus ATC (RADAR)
Wed 11:50:55 PM -31.3959 152.2365 216° Southwest 325 374 24,100  Level Aus ATC (RADAR)
Wed 11:51:30 PM -31.4387 152.2005 216° Southwest 325 374 24,100  Level Aus ATC (RADAR)
Wed 11:52:20 PM -31.5003 152.1494 215° Southwest 326 375 24,100  Level Aus ATC (RADAR)
Wed 11:53:19 PM -31.5733 152.0881 216° Southwest 321 369 24,100  Level Aus ATC (RADAR)
Wed 11:54:25 PM -31.6508 152.0231 215° Southwest 318 366 24,100  Level Aus ATC (RADAR)
Wed 11:55:15 PM -31.7113 151.9722 216° Southwest 317 365 24,100  Level Aus ATC (RADAR)
Wed 11:56:04 PM -31.7714 151.9218 215° Southwest 312 359 24,100  Level Aus ATC (RADAR)
Wed 11:56:39 PM -31.8133 151.8866 216° Southwest 312 359 24,100  Level Aus ATC (RADAR)
Wed 11:57:24 PM -31.8671 151.8408 216° Southwest 314 361 24,100 -57 Level Aus ATC (RADAR)
Wed 11:58:24 PM -31.9412 151.7786 215° Southwest 321 369 24,000 -52 Descending Aus ATC (RADAR)
Wed 11:59:20 PM -32.0060 151.7237 216° Southwest 316 364 24,000  Level Aus ATC (RADAR)
Thu 12:00:19 AM -32.0786 151.6621 216° Southwest 318 366 24,000  Level Aus ATC (RADAR)
Thu 12:01:09 AM -32.1401 151.6103 215° Southwest 321 369 24,000  Level Aus ATC (RADAR)
Thu 12:01:49 AM -32.1884 151.5688 216° Southwest 318 366 24,000  Level Aus ATC (RADAR)
Thu 12:02:34 AM -32.2426 151.5228 216° Southwest 316 364 24,000  Level Aus ATC (RADAR)
Thu 12:03:34 AM -32.3144 151.4608 216° Southwest 317 365 24,000  Level Aus ATC (RADAR)
Thu 12:04:33 AM -32.3881 151.3983 216° Southwest 323 372 24,000  Level Aus ATC (RADAR)
Thu 12:05:34 AM -32.4623 151.3355 216° Southwest 324 373 24,000  Level Aus ATC (RADAR)
Thu 12:06:33 AM -32.5358 151.2724 216° Southwest 321 369 24,000  Level Aus ATC (RADAR)
Thu 12:07:09 AM -32.5876 151.2502 200° South 332 382 24,000  Level Aus ATC (RADAR)
Thu 12:07:59 AM -32.6746 151.2506 180° South 368 423 24,000 -71 Level Aus ATC (RADAR)
Thu 12:08:33 AM -32.7348 151.2486 182° South 372 428 23,900 -1,468 Descending Aus ATC (RADAR)
Thu 12:09:33 AM -32.8388 151.2419 183° South 359 413 21,700 -2,100 Descending Aus ATC (RADAR)
Thu 12:10:33 AM -32.9433 151.2374 182° South 369 425 19,700 -2,021 Descending Aus ATC (RADAR)
Thu 12:11:08 AM -33.0055 151.2336 183° South 374 430 18,500 -2,057 Descending Aus ATC (RADAR)
Thu 12:11:43 AM -33.0662 151.2293 183° South 370 426 17,300 -1,929 Descending Aus ATC (RADAR)
Thu 12:12:32 AM -33.1517 151.2245 183° South 365 420 15,800 -1,651 Descending Aus ATC (RADAR)
Thu 12:13:32 AM -33.2540 151.2197 182° South 362 417 14,300 -1,527 Descending Aus ATC (RADAR)
Thu 12:14:22 AM -33.3374 151.2148 183° South 353 406 13,000 -1,513 Descending Aus ATC (RADAR)
Thu 12:15:27 AM -33.4445 151.2092 182° South 345 397 11,400 -1,409 Descending Aus ATC (RADAR)
Thu 12:16:17 AM -33.5231 151.2041 183° South 326 375 10,300 -1,341 Descending Aus ATC (RADAR)
Thu 12:16:52 AM -33.5740 151.2014 183° South 308 354 9,500 -1,011 Descending Aus ATC (RADAR)
Thu 12:17:52 AM -33.6592 151.1979 182° South 299 344 8,700 -626 Descending Aus ATC (RADAR)
Thu 12:18:47 AM -33.7356 151.1926 183° South 295 339 8,300 -506 Descending Aus ATC (RADAR)
Thu 12:20:26 AM -33.8656 151.2230 169° South 309 356 7,400 -523 Descending Aus ATC (RADAR)
Thu 12:21:16 AM -33.9271 151.2680 149° Southeast 296 341 7,000 -505 Descending Aus ATC (RADAR)
Thu 12:22:01 AM -33.9803 151.3054 150° Southeast 285 328 6,600 -600 Descending Aus ATC (RADAR)
Thu 12:22:46 AM -34.0318 151.3319 157° South 257 296 6,100 -667 Descending Aus ATC (RADAR)
Thu 12:23:31 AM -34.0797 151.3586 155° Southeast 247 284 5,600 -686 Descending Aus ATC (RADAR)
Thu 12:24:31 AM -34.1414 151.3894 158° South 226 260 4,900 -600 Descending Aus ATC (RADAR)
Thu 12:25:11 AM -34.1751 151.3717 203° Southwest 208 239 4,600 -400 Descending Aus ATC (RADAR)
Thu 12:25:46 AM -34.1814 151.3349 258° West 189 217 4,400 -467 Descending Aus ATC (RADAR)
Thu 12:26:41 AM -34.1510 151.2956 313° West 174 200 3,900 -743 Descending Aus ATC (RADAR)
Thu 12:27:31 AM -34.1202 151.2624 318° Northwest 175 201 3,100 -914 Descending Aus ATC (RADAR)
Thu 12:28:26 AM -34.0864 151.2281 320° Northwest 169 194 2,300 -873 Descending Aus ATC (RADAR)
Thu 12:29:21 AM -34.0442 151.2132 344° North 165 190 1,500 -847 Descending Aus ATC (RADAR)
Thu 12:29:51 AM -34.0249 151.2078 347° North 141 162 1,100 -674 Descending Aus ATC (RADAR)
Thu 12:30:50 AM -33.9906 151.1991 348° North 127 146 500 -526 Descending Aus ATC (RADAR)
Thu 12:31:45 AM -33.9601 151.1909 348° North 121 139 100 -436 Descending Aus ATC (RADAR)

Login

Don't have an account? Register now (free) for customized features, flight alerts, and more!